createdAt,value
2023-02-16T00:00:51.065Z,48.50
2023-02-16T00:03:37.503Z,49.50
2023-02-16T00:06:06.206Z,57.20
2023-02-16T00:08:34.520Z,52.50
2023-02-16T00:11:21.382Z,51.10
2023-02-16T00:13:52.892Z,47.30
2023-02-16T00:16:24.637Z,47.90
2023-02-16T00:18:53.390Z,48.10
2023-02-16T00:21:22.500Z,42.80
2023-02-16T00:23:51.167Z,47.50
2023-02-16T00:26:24.155Z,45.50
2023-02-16T00:28:55.081Z,42.80
2023-02-16T00:31:27.557Z,44.80
2023-02-16T00:33:55.941Z,43.90
2023-02-16T00:36:25.156Z,43.40
2023-02-16T00:38:53.559Z,45.80
2023-02-16T00:41:43.484Z,44.30
2023-02-16T00:44:18.693Z,43.40
2023-02-16T00:46:48.294Z,46.20
2023-02-16T00:49:19.798Z,42.40
2023-02-16T00:51:50.207Z,43.10
2023-02-16T00:54:18.594Z,41.70
2023-02-16T00:56:47.412Z,42.20
2023-02-16T00:59:20.795Z,45.00
2023-02-16T01:01:49.887Z,44.50
2023-02-16T01:04:23.591Z,43.60
2023-02-16T01:07:11.073Z,43.40
2023-02-16T01:09:58.218Z,42.60
2023-02-16T01:12:26.565Z,40.10
2023-02-16T01:14:55.865Z,42.90
2023-02-16T01:17:24.877Z,42.20
2023-02-16T01:19:54.065Z,44.10
2023-02-16T01:22:22.466Z,41.40
2023-02-16T01:24:50.860Z,42.00
2023-02-16T01:27:19.304Z,44.60
2023-02-16T01:29:47.716Z,44.60
2023-02-16T01:32:16.278Z,45.10
2023-02-16T01:34:44.801Z,43.90
2023-02-16T01:37:16.225Z,47.10
2023-02-16T01:39:44.750Z,47.40
2023-02-16T01:42:43.563Z,44.30
2023-02-16T01:45:20.276Z,44.50
2023-02-16T01:47:55.135Z,47.70
2023-02-16T01:50:36.724Z,44.80
2023-02-16T01:53:30.840Z,45.80
2023-02-16T01:56:05.893Z,42.90
2023-02-16T01:58:48.089Z,44.60
2023-02-16T02:01:41.007Z,44.60
2023-02-16T02:04:56.414Z,41.80
2023-02-16T02:07:52.274Z,41.30
2023-02-16T02:11:12.349Z,45.30
2023-02-16T02:13:47.622Z,43.40
2023-02-16T02:16:28.221Z,43.70
2023-02-16T02:18:56.697Z,47.40
2023-02-16T02:22:33.130Z,46.00
2023-02-16T02:25:31.102Z,46.10
2023-02-16T02:28:14.146Z,47.80
2023-02-16T02:31:24.752Z,50.00
2023-02-16T02:34:36.863Z,50.00
2023-02-16T02:37:41.523Z,44.90
2023-02-16T02:40:23.762Z,51.20
2023-02-16T02:43:21.237Z,55.20
2023-02-16T02:45:57.679Z,53.20
2023-02-16T02:48:34.724Z,52.10
2023-02-16T02:51:30.330Z,53.00
2023-02-16T02:54:35.271Z,50.60
2023-02-16T02:57:51.321Z,53.20
2023-02-16T03:00:41.424Z,48.70
2023-02-16T03:03:31.952Z,52.50
2023-02-16T03:06:09.927Z,47.40
2023-02-16T03:08:43.296Z,51.60
2023-02-16T03:11:41.402Z,47.40
2023-02-16T03:14:33.255Z,47.40
2023-02-16T03:17:30.352Z,49.60
2023-02-16T03:20:20.463Z,48.30
2023-02-16T03:23:08.032Z,49.70
2023-02-16T03:25:57.763Z,49.10
2023-02-16T03:28:48.899Z,49.70
2023-02-16T03:31:25.312Z,51.90
2023-02-16T03:33:54.779Z,52.50
2023-02-16T03:36:31.618Z,49.60
2023-02-16T03:39:00.764Z,49.20
2023-02-16T03:41:34.497Z,47.40
2023-02-16T03:44:02.861Z,53.30
2023-02-16T03:46:31.764Z,50.70
2023-02-16T03:49:00.050Z,52.10
2023-02-16T03:51:28.597Z,50.60
2023-02-16T03:53:56.984Z,49.00
2023-02-16T03:56:25.405Z,51.80
2023-02-16T03:58:54.405Z,51.20
2023-02-16T04:01:23.122Z,52.10
2023-02-16T04:03:51.606Z,49.30
2023-02-16T04:06:20.102Z,49.40
2023-02-16T04:08:48.516Z,50.00
2023-02-16T04:11:35.593Z,50.40
2023-02-16T04:14:04.088Z,47.50
2023-02-16T04:16:32.534Z,49.40
2023-02-16T04:19:00.885Z,45.30
2023-02-16T04:21:29.337Z,51.50
2023-02-16T04:23:57.702Z,48.50
2023-02-16T04:26:26.157Z,53.00
2023-02-16T04:28:54.559Z,48.60
2023-02-16T04:31:23.292Z,54.40
2023-02-16T04:33:51.810Z,50.90
2023-02-16T04:36:20.782Z,51.00
2023-02-16T04:38:49.134Z,51.30
2023-02-16T04:41:17.452Z,53.60
2023-02-16T04:43:45.819Z,55.70
2023-02-16T04:46:14.192Z,53.50
2023-02-16T04:48:42.854Z,58.80
2023-02-16T04:51:11.491Z,67.60
2023-02-16T04:53:39.819Z,61.70
2023-02-16T04:56:12.302Z,50.90
2023-02-16T04:58:41.695Z,53.10
2023-02-16T05:01:18.570Z,59.30
2023-02-16T05:03:47.504Z,57.30
2023-02-16T05:06:16.692Z,54.70
2023-02-16T05:08:45.658Z,56.20
2023-02-16T05:11:33.287Z,53.80
2023-02-16T05:14:20.375Z,80.30
2023-02-16T05:16:48.716Z,67.10
2023-02-16T05:19:17.052Z,55.70
2023-02-16T05:21:45.458Z,62.40
2023-02-16T05:24:13.796Z,60.10
2023-02-16T05:26:42.232Z,76.30
2023-02-16T05:29:10.646Z,87.60
2023-02-16T05:31:39.346Z,71.80
2023-02-16T05:34:07.729Z,63.90
2023-02-16T05:36:36.101Z,47.50
2023-02-16T05:39:04.567Z,50.20
2023-02-16T05:41:33.003Z,51.80
2023-02-16T05:44:03.822Z,51.70
2023-02-16T05:46:35.696Z,49.80
2023-02-16T05:49:06.170Z,53.80
2023-02-16T05:51:36.109Z,52.60
2023-02-16T05:54:05.191Z,57.50
2023-02-16T05:56:33.832Z,52.80
2023-02-16T05:59:02.250Z,48.80
2023-02-16T06:01:30.606Z,50.20
2023-02-16T06:03:59.029Z,52.60
2023-02-16T06:06:27.416Z,53.30
2023-02-16T06:08:55.772Z,53.10
2023-02-16T06:11:36.245Z,53.50
2023-02-16T06:14:18.094Z,84.70
2023-02-16T06:16:49.505Z,76.10
2023-02-16T06:19:20.310Z,67.20
2023-02-16T06:21:48.825Z,60.60
2023-02-16T06:24:17.265Z,64.60
2023-02-16T06:26:46.158Z,56.50
2023-02-16T06:29:14.531Z,52.50
2023-02-16T06:31:43.124Z,51.40
2023-02-16T06:34:11.559Z,52.90
2023-02-16T06:36:42.432Z,55.20
2023-02-16T06:39:10.976Z,56.30
2023-02-16T06:41:40.518Z,57.60
2023-02-16T06:44:15.319Z,52.10
2023-02-16T06:46:46.273Z,53.90
2023-02-16T06:49:20.095Z,52.80
2023-02-16T06:51:50.087Z,53.70
2023-02-16T06:54:19.159Z,58.50
2023-02-16T06:56:53.943Z,64.80
2023-02-16T06:59:23.337Z,66.60
2023-02-16T07:01:51.640Z,63.80
2023-02-16T07:04:19.999Z,66.20
2023-02-16T07:06:48.821Z,70.20
2023-02-16T07:09:18.310Z,65.00
2023-02-16T07:11:46.636Z,63.10
2023-02-16T07:14:15.970Z,71.20
2023-02-16T07:16:44.373Z,62.40
2023-02-16T07:19:13.400Z,63.90
2023-02-16T07:21:41.870Z,59.70
2023-02-16T07:24:10.249Z,59.50
2023-02-16T07:26:38.752Z,59.30
2023-02-16T07:29:07.110Z,56.60
2023-02-16T07:31:35.549Z,57.30
2023-02-16T07:34:04.083Z,54.70
2023-02-16T07:36:32.451Z,61.20
2023-02-16T07:39:01.024Z,57.50
2023-02-16T07:41:29.413Z,56.50
2023-02-16T07:43:57.731Z,62.20
2023-02-16T07:46:26.016Z,58.30
2023-02-16T07:48:54.398Z,59.40
2023-02-16T07:51:28.917Z,51.00
2023-02-16T07:53:59.850Z,58.40
2023-02-16T07:56:31.703Z,55.10
2023-02-16T07:59:02.596Z,57.70
2023-02-16T08:01:31.689Z,54.20
2023-02-16T08:04:00.051Z,56.90
2023-02-16T08:06:28.427Z,54.30
2023-02-16T08:08:57.347Z,50.60
2023-02-16T08:11:26.022Z,53.80
2023-02-16T08:13:54.610Z,51.90
2023-02-16T08:16:27.163Z,48.60
2023-02-16T08:18:58.003Z,50.30
2023-02-16T08:21:31.068Z,48.80
2023-02-16T08:24:05.968Z,49.00
2023-02-16T08:26:39.332Z,47.30
2023-02-16T08:29:15.266Z,46.50
2023-02-16T08:31:47.826Z,40.30
2023-02-16T08:34:19.646Z,39.50
2023-02-16T08:36:53.268Z,38.50
2023-02-16T08:39:24.754Z,37.90
2023-02-16T08:41:54.990Z,38.80
2023-02-16T08:44:25.394Z,36.70
2023-02-16T08:46:58.847Z,36.90
2023-02-16T08:49:27.704Z,36.20
2023-02-16T08:51:58.850Z,32.90
2023-02-16T08:54:30.670Z,31.70
2023-02-16T08:57:01.587Z,31.40
2023-02-16T08:59:30.900Z,31.20
2023-02-16T09:02:00.353Z,28.50
2023-02-16T09:04:29.342Z,30.10
2023-02-16T09:06:59.606Z,31.50
2023-02-16T09:09:28.590Z,29.50
2023-02-16T09:11:58.133Z,28.70
2023-02-16T09:14:27.940Z,28.40
2023-02-16T09:16:56.765Z,27.40
2023-02-16T09:19:26.013Z,25.70
2023-02-16T09:21:56.421Z,27.80
2023-02-16T09:24:25.300Z,29.00
2023-02-16T09:26:53.682Z,26.90
2023-02-16T09:29:22.094Z,28.50
2023-02-16T09:31:50.495Z,28.20
2023-02-16T09:34:22.641Z,29.00
2023-02-16T09:36:51.625Z,29.20
2023-02-16T09:39:20.048Z,27.90
2023-02-16T09:42:06.345Z,26.20
2023-02-16T09:45:04.603Z,29.70
2023-02-16T09:47:37.174Z,28.30
2023-02-16T09:50:43.903Z,28.00
2023-02-16T09:53:24.436Z,27.90
2023-02-16T09:56:04.577Z,26.60
2023-02-16T09:58:49.798Z,27.40
2023-02-16T10:01:39.967Z,27.80
2023-02-16T10:05:01.781Z,26.70
2023-02-16T10:07:52.989Z,25.90
2023-02-16T10:10:27.675Z,25.80
2023-02-16T10:13:12.938Z,26.50
2023-02-16T10:15:45.403Z,28.90
2023-02-16T10:18:29.438Z,26.70
2023-02-16T10:21:02.716Z,26.70
2023-02-16T10:23:58.863Z,27.00
2023-02-16T10:31:48.374Z,28.90
2023-02-16T10:34:47.504Z,27.70
2023-02-16T10:37:47.909Z,27.50
2023-02-16T10:40:27.548Z,28.80
2023-02-16T10:43:07.498Z,29.00
2023-02-16T10:45:53.062Z,26.70
2023-02-16T10:51:03.712Z,27.60
2023-02-16T10:53:32.292Z,29.80
2023-02-16T10:56:00.877Z,29.60
2023-02-16T10:58:39.925Z,26.00
2023-02-16T11:01:16.966Z,27.40
2023-02-16T11:03:50.583Z,28.40
2023-02-16T11:06:25.538Z,27.90
2023-02-16T11:08:57.956Z,27.30
2023-02-16T11:11:45.023Z,28.10
2023-02-16T11:14:29.802Z,29.20
2023-02-16T11:17:13.458Z,26.50
2023-02-16T11:19:52.437Z,26.30
2023-02-16T11:22:31.242Z,24.70
2023-02-16T11:25:24.115Z,26.20
2023-02-16T11:28:08.319Z,24.30
2023-02-16T11:30:41.382Z,23.20
2023-02-16T11:33:29.316Z,24.90
2023-02-16T11:35:58.080Z,26.50
2023-02-16T11:38:34.378Z,26.20
2023-02-16T11:41:06.563Z,24.40
2023-02-16T11:43:38.313Z,23.90
2023-02-16T11:46:20.754Z,23.90
2023-02-16T11:48:49.434Z,23.70
2023-02-16T11:51:33.067Z,22.20
2023-02-16T11:54:06.259Z,21.80
2023-02-16T11:56:35.852Z,22.20
2023-02-16T11:59:19.231Z,22.00
2023-02-16T12:02:03.016Z,21.60
2023-02-16T12:05:03.444Z,23.40
2023-02-16T12:07:51.652Z,21.60
2023-02-16T12:10:34.773Z,21.10
2023-02-16T12:13:38.387Z,21.40
2023-02-16T12:16:26.189Z,22.10
2023-02-16T12:19:38.487Z,21.40
2023-02-16T12:22:43.297Z,20.20
2023-02-16T12:25:33.377Z,22.60
2023-02-16T12:28:42.563Z,21.30
2023-02-16T12:31:50.119Z,20.10
2023-02-16T12:34:47.609Z,21.00
2023-02-16T12:37:34.644Z,19.60
2023-02-16T12:40:10.546Z,21.60
2023-02-16T12:43:18.519Z,21.10
2023-02-16T12:45:48.211Z,20.50
2023-02-16T12:48:47.955Z,21.20
2023-02-16T12:51:26.947Z,21.30
2023-02-16T12:54:10.758Z,21.50
2023-02-16T12:57:01.768Z,22.10
2023-02-16T13:00:15.276Z,22.60
2023-02-16T13:02:57.034Z,21.40
2023-02-16T13:05:34.757Z,20.50
2023-02-16T13:08:38.932Z,20.70
2023-02-16T13:11:10.415Z,20.70
2023-02-16T13:13:41.355Z,22.40
2023-02-16T13:16:30.855Z,22.40
2023-02-16T13:18:59.566Z,23.60
2023-02-16T13:21:58.877Z,24.00
2023-02-16T13:24:46.498Z,22.90
2023-02-16T13:27:20.210Z,23.40
2023-02-16T13:30:05.861Z,21.60
2023-02-16T13:32:50.594Z,24.10
2023-02-16T13:35:53.045Z,23.40
2023-02-16T13:38:40.889Z,23.20
2023-02-16T13:41:27.215Z,23.50
2023-02-16T13:44:02.589Z,23.10
2023-02-16T13:46:40.362Z,21.90
2023-02-16T13:49:27.850Z,21.20
2023-02-16T13:51:56.321Z,23.00
2023-02-16T13:54:40.496Z,22.60
2023-02-16T13:57:50.482Z,21.60
2023-02-16T14:00:49.194Z,22.40
2023-02-16T14:03:17.564Z,23.40
2023-02-16T14:05:55.806Z,24.20
2023-02-16T14:08:28.256Z,22.40
2023-02-16T14:11:01.407Z,23.60
2023-02-16T14:13:38.942Z,23.50
2023-02-16T14:16:14.596Z,23.30
2023-02-16T14:18:47.209Z,24.10
2023-02-16T14:21:36.005Z,24.60
2023-02-16T14:24:11.543Z,26.60
2023-02-16T14:27:01.934Z,23.30
2023-02-16T14:30:00.656Z,26.90
2023-02-16T14:32:38.778Z,26.40
2023-02-16T14:35:30.996Z,26.10
2023-02-16T14:38:27.660Z,23.30
2023-02-16T14:40:59.737Z,22.90
2023-02-16T14:43:40.403Z,23.00
2023-02-16T14:46:32.194Z,25.60
2023-02-16T14:49:28.789Z,24.30
2023-02-16T14:52:07.688Z,25.80
2023-02-16T14:54:56.508Z,22.40
2023-02-16T14:57:53.910Z,25.50
2023-02-16T15:00:50.864Z,25.20
2023-02-16T15:03:23.792Z,25.10
2023-02-16T15:06:06.253Z,23.80
2023-02-16T15:08:40.106Z,25.20
2023-02-16T15:11:11.479Z,25.70
2023-02-16T15:13:40.428Z,25.00
2023-02-16T15:16:15.821Z,24.40
2023-02-16T15:18:56.821Z,25.90
2023-02-16T15:21:28.524Z,23.60
2023-02-16T15:24:01.564Z,23.80
2023-02-16T15:26:35.539Z,26.30
2023-02-16T15:29:18.622Z,24.70
2023-02-16T15:31:47.317Z,43.90
2023-02-16T15:34:36.090Z,36.00
2023-02-16T15:37:29.045Z,49.10
2023-02-16T15:40:26.160Z,30.00
2023-02-16T15:42:58.332Z,26.70
2023-02-16T15:45:35.363Z,25.00
2023-02-16T15:48:39.147Z,26.00
2023-02-16T15:51:28.308Z,23.60
2023-02-16T15:54:13.440Z,25.60
2023-02-16T15:56:54.333Z,29.40
2023-02-16T15:59:35.526Z,25.10
2023-02-16T16:02:16.357Z,25.50
2023-02-16T16:04:57.468Z,32.40
2023-02-16T16:07:35.738Z,30.50
2023-02-16T16:10:21.020Z,28.10
2023-02-16T16:12:51.107Z,28.50
2023-02-16T16:15:25.237Z,28.20
2023-02-16T16:17:55.999Z,29.00
2023-02-16T16:20:42.047Z,27.70
2023-02-16T16:23:14.368Z,25.80
2023-02-16T16:25:48.731Z,22.10
2023-02-16T16:28:27.145Z,24.40
2023-02-16T16:31:17.943Z,21.50
2023-02-16T16:33:59.369Z,23.50
2023-02-16T16:36:55.379Z,26.10
2023-02-16T16:42:21.024Z,33.30
2023-02-16T16:45:38.488Z,38.60
2023-02-16T16:48:19.184Z,35.80
2023-02-16T16:50:48.820Z,34.10
2023-02-16T16:53:29.659Z,31.80
2023-02-16T16:56:00.592Z,35.00
2023-02-16T16:58:29.599Z,30.80
2023-02-16T17:00:58.045Z,35.40
2023-02-16T17:03:26.583Z,53.90
2023-02-16T17:05:55.029Z,47.40
2023-02-16T17:08:23.338Z,37.50
2023-02-16T17:10:51.830Z,30.10
2023-02-16T17:13:21.161Z,27.00
2023-02-16T17:16:06.869Z,30.70
2023-02-16T17:18:35.491Z,27.30
2023-02-16T17:21:05.394Z,28.20
2023-02-16T17:23:34.120Z,29.30
2023-02-16T17:26:02.815Z,31.40
2023-02-16T17:28:36.635Z,32.50
2023-02-16T17:31:08.069Z,39.60
2023-02-16T17:33:36.693Z,39.70
2023-02-16T17:36:08.074Z,40.10
2023-02-16T17:38:36.499Z,42.10
2023-02-16T17:41:05.129Z,41.90
2023-02-16T17:43:33.698Z,39.50
2023-02-16T17:46:06.522Z,37.80
2023-02-16T17:48:36.661Z,34.10
2023-02-16T17:51:06.690Z,36.30
2023-02-16T17:53:35.416Z,34.50
2023-02-16T17:56:04.235Z,38.30
2023-02-16T17:58:32.847Z,38.00
2023-02-16T18:01:01.432Z,39.90
2023-02-16T18:03:29.866Z,35.10
2023-02-16T18:05:58.236Z,37.80
2023-02-16T18:08:26.546Z,40.50
2023-02-16T18:11:01.956Z,35.80
2023-02-16T18:13:31.769Z,27.90
2023-02-16T18:16:03.803Z,30.90
2023-02-16T18:18:36.724Z,29.60
2023-02-16T18:21:05.826Z,32.00
2023-02-16T18:23:34.192Z,30.60
2023-02-16T18:26:03.675Z,30.00
2023-02-16T18:28:34.200Z,32.30
2023-02-16T18:31:06.753Z,29.90
2023-02-16T18:33:35.270Z,29.20
2023-02-16T18:36:04.615Z,31.70
2023-02-16T18:38:33.178Z,34.70
2023-02-16T18:41:01.558Z,36.60
2023-02-16T18:43:30.136Z,44.80
2023-02-16T18:45:58.502Z,31.60
2023-02-16T18:48:26.918Z,34.70
2023-02-16T18:50:55.242Z,45.40
2023-02-16T18:53:23.612Z,48.40
2023-02-16T18:55:51.893Z,41.20
2023-02-16T18:58:20.249Z,35.90
2023-02-16T19:00:48.691Z,33.00
2023-02-16T19:03:17.146Z,30.60
2023-02-16T19:05:45.743Z,32.20
2023-02-16T19:08:14.577Z,33.70
2023-02-16T19:10:43.051Z,65.30
2023-02-16T19:13:11.554Z,32.10
2023-02-16T19:15:39.961Z,30.40
2023-02-16T19:18:08.338Z,34.50
2023-02-16T19:20:36.718Z,39.30
2023-02-16T19:23:05.078Z,32.70
2023-02-16T19:25:33.502Z,46.50
2023-02-16T19:28:01.994Z,51.90
2023-02-16T19:30:30.433Z,49.50
2023-02-16T19:32:58.861Z,43.60
2023-02-16T19:35:27.280Z,47.40
2023-02-16T19:37:55.944Z,45.40
2023-02-16T19:40:24.416Z,44.90
2023-02-16T19:42:52.853Z,56.60
2023-02-16T19:45:21.347Z,55.90
2023-02-16T19:47:51.254Z,44.90
2023-02-16T19:50:19.582Z,34.10
2023-02-16T19:52:47.919Z,31.80
2023-02-16T19:55:16.262Z,33.90
2023-02-16T19:57:44.591Z,33.90
2023-02-16T20:00:14.278Z,36.40
2023-02-16T20:02:42.680Z,33.40
2023-02-16T20:05:11.867Z,32.10
2023-02-16T20:07:40.287Z,29.80
2023-02-16T20:10:09.625Z,31.40
2023-02-16T20:12:38.035Z,27.10
2023-02-16T20:15:06.957Z,37.00
2023-02-16T20:17:35.310Z,30.00
2023-02-16T20:20:05.372Z,26.60
2023-02-16T20:22:33.964Z,32.60
2023-02-16T20:25:02.658Z,54.90
2023-02-16T20:27:31.126Z,57.90
2023-02-16T20:30:03.090Z,45.00
2023-02-16T20:32:32.619Z,92.00
2023-02-16T20:35:07.400Z,84.20
2023-02-16T20:37:35.755Z,67.80
2023-02-16T20:40:05.113Z,50.70
2023-02-16T20:42:33.547Z,43.40
2023-02-16T20:45:01.905Z,50.60
2023-02-16T20:47:30.256Z,35.50
2023-02-16T20:49:58.587Z,34.00
2023-02-16T20:52:26.998Z,32.80
2023-02-16T20:54:55.403Z,40.20
2023-02-16T20:57:27.087Z,31.70
2023-02-16T20:59:55.983Z,31.90
2023-02-16T21:02:24.619Z,35.10
2023-02-16T21:04:53.076Z,29.10
2023-02-16T21:07:21.550Z,31.60
2023-02-16T21:09:49.926Z,30.30
2023-02-16T21:12:18.304Z,33.60
2023-02-16T21:14:46.697Z,33.10
2023-02-16T21:17:15.088Z,31.40
2023-02-16T21:19:43.536Z,34.10
2023-02-16T21:22:11.873Z,34.30
2023-02-16T21:24:40.870Z,32.50
2023-02-16T21:27:10.740Z,33.90
2023-02-16T21:29:39.168Z,45.10
2023-02-16T21:32:07.632Z,32.10
2023-02-16T21:34:36.756Z,32.00
2023-02-16T21:37:05.229Z,32.20
2023-02-16T21:39:52.490Z,39.40
2023-02-16T21:42:20.796Z,32.40
2023-02-16T21:45:09.078Z,36.70
2023-02-16T21:47:56.072Z,31.60
2023-02-16T21:50:24.976Z,31.00
2023-02-16T21:52:54.230Z,29.40
2023-02-16T21:55:41.416Z,30.30
2023-02-16T21:58:10.844Z,28.50
2023-02-16T22:00:39.772Z,30.50
2023-02-16T22:03:11.278Z,30.00
2023-02-16T22:05:39.762Z,64.60
2023-02-16T22:08:09.217Z,52.40
2023-02-16T22:10:37.556Z,39.40
2023-02-16T22:13:05.955Z,41.70
2023-02-16T22:15:37.109Z,41.10
2023-02-16T22:18:06.286Z,41.60
2023-02-16T22:20:34.647Z,37.70
2023-02-16T22:23:03.756Z,32.00
2023-02-16T22:25:32.073Z,44.80
2023-02-16T22:28:00.375Z,85.30
2023-02-16T22:30:28.836Z,109.40
2023-02-16T22:32:57.152Z,121.10
2023-02-16T22:35:25.417Z,131.70
2023-02-16T22:37:53.689Z,95.20
2023-02-16T22:40:22.035Z,77.40
2023-02-16T22:42:50.494Z,60.10
2023-02-16T22:45:18.791Z,38.30
2023-02-16T22:47:47.130Z,37.70
2023-02-16T22:50:15.512Z,29.60
2023-02-16T22:52:43.868Z,26.00
2023-02-16T22:55:12.247Z,25.70
2023-02-16T22:57:40.648Z,25.80
2023-02-16T23:00:15.602Z,26.40
2023-02-16T23:02:44.027Z,26.00
2023-02-16T23:05:12.401Z,27.00
2023-02-16T23:07:40.765Z,25.30
2023-02-16T23:10:09.482Z,25.00
2023-02-16T23:12:37.785Z,24.80
2023-02-16T23:15:06.623Z,34.40
2023-02-16T23:17:34.958Z,32.50
2023-02-16T23:20:04.996Z,28.70
2023-02-16T23:22:33.358Z,26.90
2023-02-16T23:25:21.174Z,21.80
2023-02-16T23:27:53.081Z,22.00
2023-02-16T23:30:21.566Z,24.40
2023-02-16T23:32:49.982Z,22.30
2023-02-16T23:35:18.434Z,24.90
2023-02-16T23:37:46.788Z,23.20
2023-02-16T23:40:15.442Z,22.80
2023-02-16T23:42:43.764Z,22.60
2023-02-16T23:45:12.069Z,22.00
2023-02-16T23:47:40.408Z,23.10
2023-02-16T23:50:08.970Z,27.60
2023-02-16T23:52:37.274Z,25.00
2023-02-16T23:55:06.060Z,26.10
2023-02-16T23:57:34.537Z,24.30
